Time;durP1;ratioP1;P1;durP2;ratioP2;P2;SDS_P1;SDS_P2;PMS_P1;PMS_P2;Temp;Humidity;BMP_temperature;BMP_pressure;BME280_temperature;BME280_humidity;BME280_pressure;Samples;Min_cycle;Max_cycle;Signal;HPM_P1;HPM_P2
2022/09/23 00:02:05;;;;;;;1.43;0.80;;;;;;;10.65;75.76;101084.94;5051896;28;20694;-77
2022/09/23 00:04:31;;;;;;;1.17;0.80;;;;;;;10.63;75.85;101077.09;5051788;28;20323;-77
2022/09/23 00:06:58;;;;;;;1.43;0.90;;;;;;;10.60;75.74;101078.88;5051802;28;20248;-77
2022/09/23 00:09:24;;;;;;;1.47;0.80;;;;;;;10.62;75.21;101082.34;5051856;28;20227;-77
2022/09/23 00:11:52;;;;;;;0.80;0.80;;;;;;;10.63;73.78;101134.56;5051935;28;20233;-77
2022/09/23 00:14:20;;;;;;;1.00;0.90;;;;;;;10.58;72.69;101177.22;5051839;28;20234;-77
2022/09/23 00:16:47;;;;;;;1.40;0.97;;;;;;;10.53;71.63;101219.91;5051683;28;20297;-77
2022/09/23 00:19:13;;;;;;;1.00;0.90;;;;;;;10.59;73.11;101199.84;5051815;28;20207;-77
2022/09/23 00:21:41;;;;;;;0.90;0.90;;;;;;;10.62;73.95;101171.97;5052046;28;20204;-77
2022/09/23 00:24:07;;;;;;;1.43;0.93;;;;;;;10.54;74.02;101150.28;5051828;28;20233;-77
2022/09/23 00:26:34;;;;;;;0.90;0.90;;;;;;;10.41;73.13;101172.13;5051473;28;20557;-77
2022/09/23 00:29:02;;;;;;;0.93;0.93;;;;;;;10.33;72.81;101174.78;5055384;28;20281;-77
2022/09/23 00:31:28;;;;;;;1.30;1.00;;;;;;;10.36;72.07;101200.00;5055697;28;20619;-77
2022/09/23 00:33:56;;;;;;;1.40;0.90;;;;;;;10.40;72.74;101186.03;5055929;28;20211;-77
2022/09/23 00:36:23;;;;;;;0.70;0.70;;;;;;;10.49;72.89;101193.84;5055646;28;20670;-77
2022/09/23 00:38:49;;;;;;;3.40;0.97;;;;;;;10.44;71.44;101213.88;5055737;28;20250;-77
2022/09/23 00:41:16;;;;;;;1.20;1.07;;;;;;;10.47;72.33;101212.09;5055810;28;20280;-77
2022/09/23 00:43:46;;;;;;;1.37;1.07;;;;;;;10.41;70.98;101224.34;5055600;28;20216;-77
2022/09/23 00:46:18;;;;;;;3.40;0.90;;;;;;;10.46;71.41;101233.00;5055107;28;20231;-77
2022/09/23 00:48:45;;;;;;;1.40;1.30;;;;;;;10.43;70.92;101223.44;5055444;28;20272;-77
2022/09/23 00:51:16;;;;;;;1.60;0.77;;;;;;;10.44;70.85;101245.19;5055659;28;20211;-77
2022/09/23 00:53:44;;;;;;;1.20;0.93;;;;;;;10.48;71.13;101232.09;5055910;28;20207;-77
2022/09/23 00:56:11;;;;;;;0.80;0.80;;;;;;;10.41;71.25;101230.41;5054979;28;20723;-77
2022/09/23 00:58:40;;;;;;;1.37;0.90;;;;;;;10.44;71.20;101237.34;5055777;28;20213;-77
2022/09/23 01:01:06;;;;;;;1.00;1.00;;;;;;;10.47;70.25;101255.63;5055426;28;20213;-77
2022/09/23 01:03:35;;;;;;;2.20;0.80;;;;;;;10.48;70.42;101252.13;5055395;28;20258;-77
2022/09/23 01:06:01;;;;;;;0.80;0.80;;;;;;;10.46;70.04;101254.72;5055066;28;20232;-77
2022/09/23 01:08:28;;;;;;;1.63;0.90;;;;;;;10.49;69.79;101273.00;5054886;28;20203;-77
2022/09/23 01:11:04;;;;;;;2.27;0.80;;;;;;;10.49;70.06;101257.34;5055579;28;20638;-77
2022/09/23 01:13:39;;;;;;;2.07;0.90;;;;;;;10.53;69.89;101263.41;5055377;28;20206;-77
2022/09/23 01:16:10;;;;;;;0.90;0.90;;;;;;;10.60;70.88;101239.00;5054909;28;20292;-77
2022/09/23 01:18:46;;;;;;;1.10;1.00;;;;;;;10.50;71.98;101196.44;5055108;28;20262;-77
2022/09/23 01:21:26;;;;;;;1.30;1.10;;;;;;;10.45;72.19;101166.03;5054858;28;20206;-77
2022/09/23 01:24:15;;;;;;;2.00;1.00;;;;;;;10.46;72.38;101159.91;5054835;28;20203;-77
2022/09/23 01:26:55;;;;;;;3.63;0.93;;;;;;;10.33;72.83;101133.91;5054750;28;20208;-77
2022/09/23 01:30:09;;;;;;;0.80;0.80;;;;;;;10.38;73.05;101118.19;5054529;28;20238;-77
2022/09/23 01:32:46;;;;;;;1.20;0.80;;;;;;;10.31;74.14;101074.78;5054761;28;20208;-77
2022/09/23 01:35:23;;;;;;;1.40;0.87;;;;;;;10.28;73.94;101057.34;5054525;28;20717;-77
2022/09/23 01:37:55;;;;;;;0.50;0.50;;;;;;;10.28;73.73;101059.94;5046272;28;20200;-77
2022/09/23 01:40:28;;;;;;;1.10;0.80;;;;;;;10.27;74.52;101044.34;5054922;28;20204;-77
2022/09/23 01:43:01;;;;;;;6.37;1.10;;;;;;;10.19;74.75;101033.97;5054628;28;20269;-77
2022/09/23 01:45:34;;;;;;;0.80;0.80;;;;;;;10.14;72.82;101033.97;5054193;28;20729;-77
2022/09/23 01:48:12;;;;;;;2.33;0.90;;;;;;;10.18;74.82;101031.34;5054783;28;20206;-76
2022/09/23 01:50:57;;;;;;;0.87;0.70;;;;;;;10.21;75.63;101011.31;5054533;28;20232;-77
2022/09/23 01:53:31;;;;;;;1.00;0.90;;;;;;;10.25;74.68;100999.97;5054580;28;20206;-77
2022/09/23 01:56:01;;;;;;;1.60;0.80;;;;;;;10.25;75.53;101007.81;5054100;28;20259;-78
2022/09/23 01:58:33;;;;;;;1.23;0.90;;;;;;;10.27;75.67;100989.53;5054390;28;20209;-77
2022/09/23 02:01:03;;;;;;;0.70;0.70;;;;;;;10.26;75.78;100980.81;5054268;28;20201;-77
2022/09/23 02:03:36;;;;;;;1.23;0.90;;;;;;;10.23;75.27;100995.66;5054333;28;20203;-77
2022/09/23 02:06:08;;;;;;;1.37;0.80;;;;;;;10.18;76.16;100974.81;5054092;28;20287;-77
2022/09/23 02:08:37;;;;;;;1.20;1.10;;;;;;;10.16;75.88;100965.28;5053899;28;20252;-77
2022/09/23 02:11:08;;;;;;;1.20;0.80;;;;;;;10.14;75.69;100976.56;5054210;28;20224;-77
2022/09/23 02:13:40;;;;;;;0.70;0.70;;;;;;;10.12;73.75;101025.28;5054268;28;20215;-77
2022/09/23 02:16:13;;;;;;;0.90;0.90;;;;;;;10.15;74.66;101037.47;5053845;28;20237;-77
2022/09/23 02:18:47;;;;;;;1.13;1.00;;;;;;;10.18;74.40;101020.91;5053966;28;20203;-77
2022/09/23 02:21:15;;;;;;;0.87;0.80;;;;;;;10.23;73.83;101040.03;5054218;28;20192;-77
2022/09/23 02:23:45;;;;;;;1.10;0.87;;;;;;;10.15;72.71;101079.22;5054009;28;20301;-77
2022/09/23 02:26:18;;;;;;;0.90;0.90;;;;;;;10.17;73.52;101087.88;5053888;28;20232;-76
2022/09/23 02:28:53;;;;;;;1.10;1.00;;;;;;;10.14;73.55;101074.84;5053825;28;20227;-77
2022/09/23 02:31:29;;;;;;;1.47;0.80;;;;;;;10.05;73.42;101064.47;5053846;28;20198;-77
2022/09/23 02:34:03;;;;;;;1.47;1.10;;;;;;;10.09;73.70;101066.22;5053978;28;20265;-77
2022/09/23 02:36:38;;;;;;;0.77;0.77;;;;;;;10.05;73.95;101061.84;5053589;28;20220;-76
2022/09/23 02:39:09;;;;;;;0.90;0.90;;;;;;;9.99;74.33;101028.88;5053450;28;20199;-77
2022/09/23 02:41:45;;;;;;;0.80;0.80;;;;;;;10.06;74.23;101029.69;5053417;28;20208;-76
2022/09/23 02:44:15;;;;;;;2.97;1.13;;;;;;;10.07;74.34;101011.44;5053532;28;20287;-76
2022/09/23 02:46:42;;;;;;;1.27;1.00;;;;;;;10.08;74.38;101010.53;5053084;28;20216;-76
2022/09/23 02:49:14;;;;;;;1.00;0.90;;;;;;;10.11;73.60;101025.31;5053093;28;20211;-76
2022/09/23 02:51:41;;;;;;;4.20;0.90;;;;;;;10.09;73.66;101042.72;5052730;28;20689;-76
2022/09/23 02:54:13;;;;;;;1.87;0.90;;;;;;;10.09;73.74;101056.63;5052995;28;20235;-76
2022/09/23 02:56:40;;;;;;;1.00;0.80;;;;;;;10.12;73.50;101048.75;5052922;28;20207;-76
2022/09/23 02:59:08;;;;;;;5.63;0.93;;;;;;;10.16;73.00;101053.97;5053291;28;20209;-76
2022/09/23 03:01:45;;;;;;;1.07;1.00;;;;;;;10.20;73.39;101064.38;5053206;28;20253;-76
2022/09/23 03:04:19;;;;;;;0.93;0.90;;;;;;;10.18;73.88;101036.56;5052991;28;20316;-76
2022/09/23 03:06:59;;;;;;;1.43;1.33;;;;;;;10.06;73.15;101041.00;5052726;28;20806;-76
2022/09/23 03:09:30;;;;;;;2.03;1.13;;;;;;;10.05;72.98;101067.06;5052856;28;20257;-76
2022/09/23 03:12:06;;;;;;;1.30;0.90;;;;;;;10.08;73.85;101041.00;5052748;28;20635;-76
2022/09/23 03:14:41;;;;;;;1.10;1.00;;;;;;;10.09;73.86;101027.94;5052809;28;20286;-76
2022/09/23 03:17:18;;;;;;;3.43;1.00;;;;;;;10.06;72.91;101022.72;5052628;28;20678;-76
2022/09/23 03:19:50;;;;;;;1.83;0.90;;;;;;;10.11;73.33;101046.19;5052921;28;20690;-76
2022/09/23 03:22:21;;;;;;;1.73;1.10;;;;;;;10.12;72.77;101040.94;5052771;28;20207;-76
2022/09/23 03:24:50;;;;;;;3.50;1.00;;;;;;;10.12;73.24;101051.38;5052218;28;20796;-76
2022/09/23 03:27:22;;;;;;;0.93;0.90;;;;;;;10.11;73.35;101034.00;5052412;28;20206;-76
2022/09/23 03:29:50;;;;;;;1.10;1.00;;;;;;;10.10;73.44;101031.41;5052210;28;20234;-76
2022/09/23 03:32:20;;;;;;;1.00;1.00;;;;;;;10.10;74.42;101002.72;5052417;28;20263;-76
2022/09/23 03:34:52;;;;;;;1.30;0.90;;;;;;;10.06;72.18;101032.31;5052212;28;20225;-76
2022/09/23 03:37:24;;;;;;;1.10;1.00;;;;;;;10.14;71.90;101044.41;5052167;28;20269;-76
2022/09/23 03:39:53;;;;;;;2.27;0.93;;;;;;;10.19;72.78;101047.00;5044039;28;20660;-76
2022/09/23 03:42:23;;;;;;;1.10;1.00;;;;;;;10.20;71.74;101072.19;5052187;28;20678;-76
2022/09/23 03:44:55;;;;;;;2.77;1.30;;;;;;;10.25;72.63;101062.59;5052014;28;20235;-76
2022/09/23 03:47:22;;;;;;;1.80;1.20;;;;;;;10.21;72.14;101073.94;5052280;28;20209;-76
2022/09/23 03:49:50;;;;;;;1.30;1.20;;;;;;;10.20;72.39;101072.19;5051936;28;20673;-76
2022/09/23 03:52:19;;;;;;;1.10;1.00;;;;;;;10.14;73.35;101027.91;5052265;28;20309;-76
2022/09/23 03:54:45;;;;;;;2.77;1.00;;;;;;;10.06;73.07;101033.16;5051989;28;20286;-76
2022/09/23 03:57:12;;;;;;;2.30;1.10;;;;;;;10.16;71.71;101049.63;5052201;28;20215;-76
2022/09/23 03:59:39;;;;;;;1.67;1.03;;;;;;;10.15;70.49;101092.25;5052146;28;20258;-76
2022/09/23 04:02:06;;;;;;;2.10;1.00;;;;;;;10.23;70.89;101094.81;5051772;28;20259;-76
2022/09/23 04:04:34;;;;;;;2.70;0.97;;;;;;;10.24;70.80;101113.03;5052095;28;20233;-76
2022/09/23 04:07:03;;;;;;;0.90;0.90;;;;;;;10.31;71.17;101114.78;5051881;28;20200;-76
2022/09/23 04:09:30;;;;;;;3.03;1.00;;;;;;;10.36;71.73;101083.41;5051706;28;20255;-76
2022/09/23 04:11:56;;;;;;;1.30;1.20;;;;;;;10.32;71.68;101066.06;5051953;28;20206;-76
2022/09/23 04:14:23;;;;;;;1.07;0.97;;;;;;;10.28;71.47;101072.13;5051858;28;20235;-76
2022/09/23 04:16:50;;;;;;;1.73;1.10;;;;;;;10.29;71.39;101066.91;5051659;28;20212;-76
2022/09/23 04:19:17;;;;;;;0.90;0.90;;;;;;;10.22;72.29;101053.94;5052014;28;20208;-76
2022/09/23 04:21:45;;;;;;;1.17;1.00;;;;;;;10.22;71.34;101064.38;5052043;28;20217;-76
2022/09/23 04:24:13;;;;;;;1.97;0.90;;;;;;;10.26;71.29;101063.47;5051759;28;20293;-76
2022/09/23 04:26:41;;;;;;;1.97;1.30;;;;;;;10.26;71.83;101040.84;5051502;28;20216;-76
2022/09/23 04:29:09;;;;;;;0.87;0.87;;;;;;;10.29;70.93;101058.22;5051756;28;20587;-76
2022/09/23 04:31:36;;;;;;;1.57;1.10;;;;;;;10.22;70.65;101057.41;5051416;28;20261;-76
2022/09/23 04:34:02;;;;;;;1.50;1.20;;;;;;;10.31;70.83;101069.56;5051765;28;20211;-76
2022/09/23 04:36:29;;;;;;;0.83;0.80;;;;;;;10.37;71.48;101072.13;5051505;28;20223;-76
2022/09/23 04:38:56;;;;;;;1.00;1.00;;;;;;;10.35;71.70;101055.59;5051500;28;20224;-76
2022/09/23 04:41:23;;;;;;;1.87;1.10;;;;;;;10.35;71.38;101055.59;5051765;28;20213;-76
2022/09/23 04:43:50;;;;;;;2.00;1.33;;;;;;;10.31;71.33;101033.88;5051732;28;20876;-76
2022/09/23 04:46:17;;;;;;;1.53;1.43;;;;;;;10.32;71.33;101035.59;5051418;28;20204;-76
2022/09/23 04:48:43;;;;;;;1.00;1.00;;;;;;;10.39;71.52;101049.47;5051784;28;20203;-76
2022/09/23 04:51:11;;;;;;;1.20;1.10;;;;;;;10.40;71.78;101034.69;5051692;28;20281;-76
2022/09/23 04:53:40;;;;;;;1.33;1.00;;;;;;;10.37;71.86;101025.16;5051597;28;20212;-76
2022/09/23 04:56:10;;;;;;;1.47;1.10;;;;;;;10.35;72.27;101024.28;5051152;28;20290;-75
2022/09/23 04:58:38;;;;;;;1.10;0.97;;;;;;;10.33;73.02;100995.59;5051949;28;20207;-76
2022/09/23 05:01:10;;;;;;;2.80;1.40;;;;;;;10.25;72.54;100989.53;5051553;28;20238;-76
2022/09/23 05:03:36;;;;;;;1.23;1.10;;;;;;;10.27;72.20;101003.44;5051294;28;20601;-76
2022/09/23 05:06:03;;;;;;;2.03;1.43;;;;;;;10.26;73.18;100985.19;5050989;28;20576;-75
2022/09/23 05:08:29;;;;;;;1.00;1.00;;;;;;;10.23;74.14;100948.69;5051014;28;20601;-75
2022/09/23 05:10:56;;;;;;;1.30;1.23;;;;;;;10.18;74.52;100925.25;5051160;28;20228;-75
2022/09/23 05:13:23;;;;;;;1.33;1.00;;;;;;;10.12;74.39;100909.66;5052242;28;20213;-75
2022/09/23 05:15:57;;;;;;;1.17;1.07;;;;;;;10.12;74.05;100915.72;5054970;28;20228;-75
2022/09/23 05:18:23;;;;;;;2.67;1.10;;;;;;;10.18;73.82;100911.34;5055097;28;20212;-75
2022/09/23 05:20:52;;;;;;;0.90;0.90;;;;;;;10.15;74.79;100920.06;5054830;28;20205;-75
2022/09/23 05:23:19;;;;;;;1.37;0.97;;;;;;;10.16;75.84;100879.19;5054864;28;20308;-75
2022/09/23 05:25:47;;;;;;;1.00;0.90;;;;;;;10.09;76.05;100868.81;5054855;28;20288;-75
2022/09/23 05:28:13;;;;;;;0.83;0.83;;;;;;;10.11;75.53;100853.16;5054935;28;20240;-75
2022/09/23 05:30:40;;;;;;;1.90;1.07;;;;;;;10.12;76.66;100842.69;5054650;28;20228;-75
2022/09/23 05:33:07;;;;;;;1.17;1.10;;;;;;;10.15;74.24;100873.13;5054724;28;20213;-75
2022/09/23 05:35:34;;;;;;;1.40;1.30;;;;;;;10.16;75.00;100903.53;5054339;28;20285;-75
2022/09/23 05:38:00;;;;;;;1.57;1.00;;;;;;;10.14;73.96;100927.00;5054423;28;20266;-75
2022/09/23 05:40:27;;;;;;;1.53;1.10;;;;;;;10.16;72.80;100947.03;5054603;28;20242;-75
2022/09/23 05:42:53;;;;;;;1.00;1.00;;;;;;;10.24;73.51;100943.44;5054651;28;20257;-75
2022/09/23 05:45:20;;;;;;;3.17;1.00;;;;;;;10.31;73.07;100953.00;5054345;28;20236;-75
2022/09/23 05:47:46;;;;;;;1.27;1.10;;;;;;;10.32;72.98;100972.13;5046222;28;20745;-75
2022/09/23 05:50:14;;;;;;;1.33;1.10;;;;;;;10.37;73.74;100954.69;5044475;28;20207;-76
2022/09/23 05:52:41;;;;;;;1.23;1.10;;;;;;;10.41;72.64;100963.34;5037274;28;20262;-75
2022/09/23 05:55:08;;;;;;;1.13;1.03;;;;;;;10.47;73.31;100973.72;5034199;28;20231;-75
2022/09/23 05:57:35;;;;;;;1.33;1.20;;;;;;;10.42;73.34;100946.78;5034543;28;20212;-75
2022/09/23 06:00:01;;;;;;;2.10;1.00;;;;;;;10.49;73.99;100935.44;5037728;28;20221;-75
2022/09/23 06:02:28;;;;;;;1.97;1.57;;;;;;;10.52;73.14;100970.19;5034630;28;20224;-75
2022/09/23 06:04:54;;;;;;;1.20;1.10;;;;;;;10.54;73.89;100954.50;5034270;28;20279;-75
2022/09/23 06:07:22;;;;;;;1.50;1.40;;;;;;;10.59;70.84;101019.72;5047634;28;20616;-76
2022/09/23 06:09:49;;;;;;;2.93;1.27;;;;;;;10.71;71.51;101038.75;5044253;28;20697;-75
2022/09/23 06:12:15;;;;;;;1.60;1.40;;;;;;;10.78;70.97;101059.56;5051955;28;20274;-75
2022/09/23 06:14:42;;;;;;;1.20;1.03;;;;;;;10.80;70.79;101052.56;5051609;28;20228;-75
2022/09/23 06:17:08;;;;;;;1.20;0.90;;;;;;;10.86;71.62;101050.78;5051257;28;20258;-75
2022/09/23 06:19:35;;;;;;;1.50;1.10;;;;;;;10.87;69.11;101094.28;5052082;28;20212;-76
2022/09/23 06:22:01;;;;;;;1.07;1.00;;;;;;;10.99;70.60;101098.53;5051911;28;20205;-75
2022/09/23 06:24:29;;;;;;;1.13;1.03;;;;;;;11.05;69.64;101108.91;5052697;28;20293;-76
2022/09/23 06:26:55;;;;;;;2.07;1.00;;;;;;;11.11;69.45;101124.53;5053634;28;20211;-75
2022/09/23 06:29:22;;;;;;;1.33;1.20;;;;;;;11.13;69.44;101133.22;5053522;28;20253;-75
2022/09/23 06:31:49;;;;;;;1.17;1.07;;;;;;;11.17;70.13;101109.69;5053711;28;20232;-76
2022/09/23 06:34:16;;;;;;;2.30;1.07;;;;;;;11.21;69.29;101133.13;5053448;28;20771;-75
2022/09/23 06:36:43;;;;;;;1.93;1.30;;;;;;;11.26;70.34;101100.00;5053138;28;20561;-76
2022/09/23 06:39:09;;;;;;;2.83;1.27;;;;;;;11.26;71.20;101084.31;5053362;28;20208;-76
2022/09/23 06:41:38;;;;;;;1.37;1.03;;;;;;;11.26;70.65;101071.25;5053520;28;20204;-75
2022/09/23 06:44:04;;;;;;;1.23;1.13;;;;;;;11.23;70.50;101068.66;5053200;28;20239;-75
2022/09/23 06:46:31;;;;;;;1.30;1.20;;;;;;;11.24;69.92;101067.78;5053106;28;20252;-75
2022/09/23 06:48:58;;;;;;;1.40;1.20;;;;;;;11.26;68.30;101113.06;5053285;28;20209;-75
2022/09/23 06:51:24;;;;;;;1.03;1.00;;;;;;;11.41;69.23;101132.06;5053318;28;20243;-76
2022/09/23 06:53:51;;;;;;;2.30;1.07;;;;;;;11.47;71.12;101101.47;5053282;28;20211;-76
2022/09/23 06:56:18;;;;;;;1.93;1.20;;;;;;;11.48;70.74;101063.16;5053144;28;20204;-76
2022/09/23 06:58:46;;;;;;;1.30;1.20;;;;;;;11.47;69.33;101096.25;5053216;28;20303;-79
2022/09/23 07:01:15;;;;;;;1.50;1.40;;;;;;;11.56;69.74;101086.59;5053022;28;20238;-76
2022/09/23 07:03:43;;;;;;;3.47;1.27;;;;;;;11.64;70.86;101061.19;5053212;28;20217;-77
2022/09/23 07:06:09;;;;;;;1.17;1.07;;;;;;;11.62;72.04;101022.00;5052622;28;20735;-77
2022/09/23 07:08:36;;;;;;;1.60;1.20;;;;;;;11.64;72.03;101001.91;5052742;28;20671;-77
2022/09/23 07:11:05;;;;;;;1.23;1.13;;;;;;;11.66;71.93;100991.44;5052841;28;20744;-77
2022/09/23 07:13:32;;;;;;;2.03;1.30;;;;;;;11.63;71.79;100979.25;5052856;28;20681;-76
2022/09/23 07:16:01;;;;;;;1.73;1.17;;;;;;;11.63;72.65;100979.25;5052798;28;20228;-77
2022/09/23 07:18:30;;;;;;;1.30;1.20;;;;;;;11.61;73.51;100938.34;5054032;28;20208;-77
2022/09/23 07:20:57;;;;;;;1.43;1.17;;;;;;;11.60;71.85;100960.16;5052922;28;20208;-76
2022/09/23 07:23:24;;;;;;;1.90;1.10;;;;;;;11.56;73.52;100938.41;5052809;28;20208;-75
2022/09/23 07:25:51;;;;;;;1.13;1.10;;;;;;;11.57;73.40;100928.81;5052503;28;20227;-75
2022/09/23 07:28:18;;;;;;;1.33;1.17;;;;;;;11.59;75.23;100874.75;5052693;28;20642;-77
2022/09/23 07:30:45;;;;;;;1.57;1.37;;;;;;;11.55;77.06;100828.63;5052678;28;20562;-76
2022/09/23 07:33:13;;;;;;;2.73;1.10;;;;;;;11.58;77.45;100790.22;5052632;28;20782;-75
2022/09/23 07:35:41;;;;;;;1.40;1.30;;;;;;;11.56;75.42;100799.84;5052099;28;20277;-75
2022/09/23 07:38:07;;;;;;;1.20;1.20;;;;;;;11.62;75.56;100820.66;5052334;28;20205;-76
2022/09/23 07:40:34;;;;;;;1.43;1.10;;;;;;;11.62;78.54;100775.34;5052330;28;20201;-75
2022/09/23 07:43:00;;;;;;;1.20;1.07;;;;;;;11.59;77.59;100760.56;5052436;28;20229;-76
2022/09/23 07:45:27;;;;;;;1.03;1.00;;;;;;;11.63;79.64;100719.53;5052215;28;20287;-76
2022/09/23 07:47:55;;;;;;;1.40;1.03;;;;;;;11.59;79.62;100676.03;5052185;28;20205;-76
2022/09/23 07:50:22;;;;;;;2.00;1.07;;;;;;;11.63;80.41;100693.38;5052191;28;20204;-76
2022/09/23 07:52:51;;;;;;;1.57;1.20;;;;;;;11.66;78.70;100712.50;5051971;28;20301;-75
2022/09/23 07:55:18;;;;;;;1.03;1.00;;;;;;;11.71;75.58;100783.88;5051865;28;20315;-75
2022/09/23 07:57:45;;;;;;;1.50;1.40;;;;;;;11.77;71.78;100908.44;5051988;28;20663;-75
2022/09/23 08:00:13;;;;;;;1.63;1.10;;;;;;;11.93;70.58;101005.88;5051980;28;20238;-75
2022/09/23 08:02:40;;;;;;;1.40;1.30;;;;;;;12.06;70.38;101048.41;5051916;28;20206;-75
2022/09/23 08:05:08;;;;;;;1.67;1.10;;;;;;;12.15;71.18;101045.69;5051652;28;20322;-75
2022/09/23 08:07:36;;;;;;;1.23;0.90;;;;;;;12.26;68.25;101129.25;5051939;28;20212;-75
2022/09/23 08:10:02;;;;;;;1.93;1.07;;;;;;;12.37;68.22;101163.13;5052017;28;20213;-76
2022/09/23 08:12:29;;;;;;;1.00;1.00;;;;;;;12.42;66.93;101192.72;5051870;28;20251;-76
2022/09/23 08:14:58;;;;;;;1.10;1.00;;;;;;;12.52;67.49;101204.78;5051829;28;20264;-76
2022/09/23 08:17:25;;;;;;;1.30;1.20;;;;;;;12.61;65.00;101240.47;5051833;28;20204;-76
2022/09/23 08:19:51;;;;;;;1.43;1.10;;;;;;;12.71;65.60;101260.41;5051648;28;20641;-76
2022/09/23 08:22:18;;;;;;;1.00;1.00;;;;;;;12.81;66.33;101261.13;5051917;28;20205;-76
2022/09/23 08:24:46;;;;;;;1.20;1.10;;;;;;;12.88;66.90;101239.16;5051649;28;20223;-75
2022/09/23 08:27:13;;;;;;;1.47;1.20;;;;;;;12.93;65.52;101236.50;5051766;28;20622;-76
2022/09/23 08:29:39;;;;;;;1.90;1.00;;;;;;;13.00;65.59;101266.94;5051553;28;20217;-76
2022/09/23 08:32:06;;;;;;;1.20;1.10;;;;;;;13.05;65.68;101252.03;5051718;28;20225;-75
2022/09/23 08:34:34;;;;;;;1.50;1.10;;;;;;;13.11;65.18;101257.16;5051676;28;20271;-76
2022/09/23 08:37:00;;;;;;;5.23;1.33;;;;;;;13.14;67.54;101223.06;5051477;28;20209;-75
2022/09/23 08:39:27;;;;;;;1.20;1.10;;;;;;;13.17;66.64;101195.91;5051436;28;20204;-75
2022/09/23 08:42:08;;;;;;;1.10;1.10;;;;;;;13.11;66.03;101147.06;5051641;28;20209;-76
2022/09/23 08:44:43;;;;;;;3.13;1.30;;;;;;;13.15;70.04;101127.78;5051475;28;20282;-76
2022/09/23 08:47:17;;;;;;;5.73;1.20;;;;;;;13.15;71.53;101045.66;5051758;28;20620;-76
2022/09/23 08:49:53;;;;;;;2.13;1.30;;;;;;;13.06;74.11;100939.22;5054809;28;20676;-75
2022/09/23 08:52:28;;;;;;;1.57;1.10;;;;;;;13.07;75.63;100914.75;5055500;28;20278;-76
2022/09/23 08:54:55;;;;;;;2.13;1.17;;;;;;;13.10;76.07;100878.88;5055042;28;20277;-75
2022/09/23 08:57:31;;;;;;;1.43;1.07;;;;;;;13.20;70.47;100931.06;5055428;28;20259;-75
2022/09/23 08:59:58;;;;;;;1.40;1.30;;;;;;;13.34;65.69;101064.50;5055525;28;20213;-76
2022/09/23 09:02:24;;;;;;;1.37;1.23;;;;;;;13.49;64.22;101183.09;5055307;28;20279;-75
2022/09/23 09:04:54;;;;;;;1.77;1.40;;;;;;;13.62;64.33;101241.44;5055013;28;20282;-75
2022/09/23 09:07:28;;;;;;;2.13;1.30;;;;;;;13.69;62.74;101287.66;5054983;28;20205;-75
2022/09/23 09:10:03;;;;;;;1.77;1.20;;;;;;;13.76;62.06;101345.28;5047776;28;20667;-76
2022/09/23 09:12:40;;;;;;;1.30;1.20;;;;;;;13.84;61.45;101403.75;5055208;28;20225;-75
2022/09/23 09:15:13;;;;;;;2.10;1.20;;;;;;;13.94;64.41;101351.97;5054850;28;20228;-76
2022/09/23 09:17:47;;;;;;;1.40;1.30;;;;;;;13.84;64.28;101251.53;5055044;28;20243;-77
2022/09/23 09:20:24;;;;;;;2.97;1.17;;;;;;;13.87;64.84;101230.47;5055234;28;20245;-76
2022/09/23 09:22:54;;;;;;;2.87;1.50;;;;;;;13.94;64.96;101246.97;5055057;28;20244;-75
2022/09/23 09:25:25;;;;;;;1.50;1.27;;;;;;;14.02;59.94;101329.91;5054771;28;20237;-75
2022/09/23 09:27:54;;;;;;;2.63;1.50;;;;;;;14.14;60.77;101389.22;5054903;28;20213;-76
2022/09/23 09:30:21;;;;;;;1.30;1.20;;;;;;;14.19;59.91;101379.50;5054526;28;20558;-75
2022/09/23 09:32:55;;;;;;;2.23;1.37;;;;;;;14.27;61.25;101398.59;5054570;28;20228;-76
2022/09/23 09:35:33;;;;;;;1.83;1.53;;;;;;;14.32;59.76;101360.88;5054521;28;20236;-76
2022/09/23 09:38:00;;;;;;;1.60;1.50;;;;;;;14.41;58.84;101436.84;5048170;28;20232;-76
2022/09/23 09:40:27;;;;;;;1.13;1.07;;;;;;;14.44;58.69;101458.69;5054444;28;20283;-76
2022/09/23 09:42:55;;;;;;;1.50;1.40;;;;;;;14.52;58.67;101471.69;5053892;28;20206;-75
2022/09/23 09:45:37;;;;;;;1.13;1.13;;;;;;;14.60;58.42;101447.91;5047452;28;20275;-76
2022/09/23 09:48:10;;;;;;;1.43;1.33;;;;;;;14.71;59.14;101448.59;5044965;28;20193;-75
2022/09/23 09:50:48;;;;;;;4.10;1.30;;;;;;;14.77;56.73;101463.38;5044927;28;20286;-75
2022/09/23 09:53:25;;;;;;;1.93;1.30;;;;;;;14.88;56.15;101517.47;5050206;28;20228;-76
2022/09/23 09:55:59;;;;;;;1.40;1.30;;;;;;;14.89;55.24;101537.59;5054114;28;20313;-75
2022/09/23 09:58:40;;;;;;;1.03;1.03;;;;;;;14.96;56.36;101538.31;5054120;28;20213;-76
2022/09/23 10:01:07;;;;;;;1.50;1.40;;;;;;;14.92;55.86;101534.03;5053895;28;20754;-76
2022/09/23 10:03:38;;;;;;;1.20;1.20;;;;;;;14.93;55.89;101546.28;5054146;28;20232;-76
2022/09/23 10:06:15;;;;;;;1.00;1.00;;;;;;;14.95;54.69;101555.00;5047014;28;20282;-76
2022/09/23 10:08:47;;;;;;;1.37;1.27;;;;;;;15.00;56.35;101558.41;5053884;28;20198;-76
2022/09/23 10:11:15;;;;;;;2.27;1.40;;;;;;;15.06;56.05;101524.13;5053945;28;20572;-75
2022/09/23 10:14:02;;;;;;;1.67;1.40;;;;;;;15.20;57.08;101489.66;5052839;28;20228;-75
2022/09/23 10:16:30;;;;;;;1.60;1.30;;;;;;;15.30;56.15;101490.28;5052381;28;20213;-76
2022/09/23 10:18:59;;;;;;;1.30;1.20;;;;;;;15.37;55.37;101501.56;5053754;28;20305;-76
2022/09/23 10:21:32;;;;;;;1.43;1.33;;;;;;;15.43;55.73;101510.19;5053717;28;20235;-76
2022/09/23 10:23:59;;;;;;;1.97;1.17;;;;;;;15.47;54.74;101509.22;5053561;28;20268;-75
2022/09/23 10:26:31;;;;;;;1.87;1.40;;;;;;;15.57;54.31;101532.69;5052813;28;20461;-76
2022/09/23 10:29:01;;;;;;;1.30;1.10;;;;;;;15.64;54.04;101510.63;5053444;28;20220;-76
2022/09/23 10:31:30;;;;;;;1.40;1.30;;;;;;;15.76;54.18;101528.78;5053552;28;20666;-76
2022/09/23 10:33:59;;;;;;;0.90;0.90;;;;;;;15.82;53.37;101538.31;5053319;28;20727;-75
2022/09/23 10:36:27;;;;;;;1.93;1.30;;;;;;;15.87;53.13;101575.91;5052985;28;20215;-76
2022/09/23 10:46:36;;;;;;;1.13;1.13;;;;;;;15.96;53.21;101580.13;5053253;28;20264;-76
2022/09/23 10:47:51;;;;;;;1.30;1.20;;;;;;;16.45;55.24;101526.22;5053223;28;20282;-76
2022/09/23 10:50:29;;;;;;;1.10;1.00;;;;;;;16.45;52.01;101537.66;5053475;28;20205;-75
2022/09/23 10:53:04;;;;;;;1.60;1.50;;;;;;;16.67;53.16;101555.53;5053304;28;20276;-76
2022/09/23 10:55:41;;;;;;;1.30;1.20;;;;;;;16.73;50.91;101583.50;5052889;28;20437;-75
2022/09/23 10:58:46;;;;;;;1.37;1.27;;;;;;;16.82;51.68;101625.50;5053463;28;20256;-76
2022/09/23 11:01:28;;;;;;;1.40;1.10;;;;;;;16.92;52.29;101621.69;5053229;28;20213;-75
2022/09/23 11:04:08;;;;;;;1.50;1.40;;;;;;;16.83;51.42;101592.94;5052906;28;20496;-75
2022/09/23 11:06:48;;;;;;;1.13;1.13;;;;;;;16.91;52.23;101598.88;5052876;28;20215;-75
2022/09/23 11:09:29;;;;;;;1.97;1.17;;;;;;;16.83;51.00;101599.09;5052867;28;20194;-75
2022/09/23 11:12:08;;;;;;;1.23;1.13;;;;;;;17.20;52.59;101592.78;5052037;28;20217;-76
2022/09/23 11:14:56;;;;;;;2.03;1.40;;;;;;;17.35;50.02;101573.03;5052834;28;20231;-75
2022/09/23 11:17:41;;;;;;;1.23;1.13;;;;;;;17.31;48.52;101607.47;5052904;28;20211;-75
2022/09/23 11:20:35;;;;;;;1.30;1.20;;;;;;;17.51;49.39;101650.00;5052688;28;20212;-75
2022/09/23 11:23:25;;;;;;;1.40;1.30;;;;;;;17.59;48.62;101647.16;5050939;28;20258;-75
2022/09/23 11:25:59;;;;;;;1.63;1.53;;;;;;;17.89;48.35;101669.19;5052647;28;20239;-75
2022/09/23 11:28:54;;;;;;;1.97;1.30;;;;;;;18.29;48.29;101704.09;5052327;28;20747;-75
2022/09/23 11:31:32;;;;;;;1.30;1.20;;;;;;;18.57;46.45;101688.22;5048581;28;20550;-75
2022/09/23 11:34:30;;;;;;;1.37;1.20;;;;;;;19.18;44.83;101699.44;5052469;28;20231;-75
2022/09/23 11:37:03;;;;;;;1.33;1.23;;;;;;;20.01;45.20;101775.09;5051721;28;20204;-75
2022/09/23 11:39:35;;;;;;;1.40;1.10;;;;;;;21.00;45.43;101786.28;5052544;28;20205;-76
2022/09/23 11:42:08;;;;;;;1.07;1.00;;;;;;;21.51;40.76;101834.69;5052479;28;20205;-76
2022/09/23 11:44:40;;;;;;;1.30;1.10;;;;;;;21.95;41.24;101916.97;5052113;28;20708;-76
2022/09/23 11:47:10;;;;;;;1.80;1.10;;;;;;;22.82;40.08;101931.78;5052053;28;20216;-76